createdAt,value
2023-01-23T00:01:26.782Z,88.12
2023-01-23T00:03:54.806Z,88.48
2023-01-23T00:06:22.051Z,88.10
2023-01-23T00:08:49.068Z,87.75
2023-01-23T00:11:21.117Z,88.46
2023-01-23T00:13:48.514Z,87.88
2023-01-23T00:16:23.846Z,88.87
2023-01-23T00:18:51.810Z,88.92
2023-01-23T00:21:22.221Z,88.84
2023-01-23T00:23:51.745Z,88.90
2023-01-23T00:26:21.152Z,89.18
2023-01-23T00:28:47.998Z,88.96
2023-01-23T00:31:20.733Z,89.63
2023-01-23T00:33:54.519Z,89.54
2023-01-23T00:36:23.736Z,89.92
2023-01-23T00:38:50.538Z,89.89
2023-01-23T00:41:17.321Z,89.27
2023-01-23T00:43:45.096Z,90.01
2023-01-23T00:46:11.863Z,89.97
2023-01-23T00:48:39.882Z,90.58
2023-01-23T00:51:06.709Z,90.22
2023-01-23T00:53:33.549Z,90.00
2023-01-23T00:56:00.395Z,91.29
2023-01-23T00:58:27.171Z,90.90
2023-01-23T01:00:54.249Z,91.13
2023-01-23T01:03:21.170Z,90.64
2023-01-23T01:05:48.175Z,90.34
2023-01-23T01:08:14.912Z,91.58
2023-01-23T01:10:42.225Z,90.86
2023-01-23T01:13:09.728Z,90.66
2023-01-23T01:15:37.650Z,91.66
2023-01-23T01:18:04.939Z,90.92
2023-01-23T01:20:31.866Z,91.60
2023-01-23T01:23:00.583Z,91.78
2023-01-23T01:25:27.674Z,91.52
2023-01-23T01:27:56.117Z,91.74
2023-01-23T01:30:23.214Z,91.04
2023-01-23T01:32:50.348Z,91.63
2023-01-23T01:35:17.082Z,92.00
2023-01-23T01:37:43.927Z,91.76
2023-01-23T01:40:15.943Z,91.52
2023-01-23T01:42:45.277Z,91.44
2023-01-23T01:45:49.782Z,91.99
2023-01-23T01:48:16.550Z,90.97
2023-01-23T01:50:43.546Z,91.81
2023-01-23T01:53:10.819Z,90.99
2023-01-23T01:55:38.287Z,90.96
2023-01-23T01:58:05.076Z,90.94
2023-01-23T02:00:32.036Z,91.35
2023-01-23T02:03:01.133Z,91.53
2023-01-23T02:05:43.467Z,91.75
2023-01-23T02:08:16.580Z,91.96
2023-01-23T02:10:46.035Z,92.18
2023-01-23T02:13:32.573Z,90.93
2023-01-23T02:16:03.722Z,92.01
2023-01-23T02:18:32.033Z,91.64
2023-01-23T02:21:01.922Z,91.55
2023-01-23T02:23:54.836Z,91.76
2023-01-23T02:26:33.124Z,91.97
2023-01-23T02:29:00.346Z,91.47
2023-01-23T02:31:32.200Z,91.69
2023-01-23T02:34:00.095Z,90.94
2023-01-23T02:36:30.316Z,91.91
2023-01-23T02:39:14.567Z,91.43
2023-01-23T02:41:49.824Z,91.33
2023-01-23T02:44:27.367Z,90.82
2023-01-23T02:47:02.522Z,91.79
2023-01-23T02:49:29.784Z,91.78
2023-01-23T02:51:57.026Z,91.38
2023-01-23T02:54:24.523Z,91.94
2023-01-23T02:56:51.422Z,91.05
2023-01-23T02:59:39.323Z,91.50
2023-01-23T03:02:08.116Z,91.02
2023-01-23T03:04:35.063Z,91.26
2023-01-23T03:07:01.937Z,92.00
2023-01-23T03:09:28.914Z,91.31
2023-01-23T03:11:57.690Z,91.96
2023-01-23T03:14:24.933Z,91.44
2023-01-23T03:16:54.131Z,91.50
2023-01-23T03:19:25.279Z,91.35
2023-01-23T03:21:52.954Z,91.36
2023-01-23T03:24:20.239Z,91.97
2023-01-23T03:26:48.802Z,92.07
2023-01-23T03:29:44.018Z,92.07
2023-01-23T03:32:15.195Z,91.20
2023-01-23T03:34:43.219Z,91.81
2023-01-23T03:37:13.748Z,91.63
2023-01-23T03:40:02.408Z,91.90
2023-01-23T03:42:30.438Z,91.81
2023-01-23T03:44:58.172Z,91.19
2023-01-23T03:47:28.869Z,92.06
2023-01-23T03:49:55.760Z,91.68
2023-01-23T03:52:22.606Z,91.20
2023-01-23T03:54:49.390Z,91.10
2023-01-23T03:57:15.982Z,91.72
2023-01-23T03:59:48.878Z,91.50
2023-01-23T04:02:19.109Z,90.90
2023-01-23T04:04:45.968Z,90.67
2023-01-23T04:07:12.767Z,91.41
2023-01-23T04:09:41.485Z,91.55
2023-01-23T04:12:08.704Z,91.24
2023-01-23T04:14:39.595Z,91.68
2023-01-23T04:17:08.228Z,91.78
2023-01-23T04:19:35.676Z,91.18
2023-01-23T04:22:02.712Z,91.10
2023-01-23T04:24:33.570Z,91.15
2023-01-23T04:27:00.362Z,90.84
2023-01-23T04:29:28.257Z,91.86
2023-01-23T04:31:55.132Z,91.23
2023-01-23T04:34:22.132Z,91.80
2023-01-23T04:36:50.970Z,90.94
2023-01-23T04:39:17.785Z,91.90
2023-01-23T04:41:48.138Z,91.28
2023-01-23T04:44:37.761Z,91.38
2023-01-23T04:47:27.445Z,91.30
2023-01-23T04:49:54.219Z,92.04
2023-01-23T04:52:20.998Z,91.35
2023-01-23T04:54:56.664Z,91.89
2023-01-23T04:57:23.786Z,91.80
2023-01-23T04:59:58.500Z,91.13
2023-01-23T05:02:27.146Z,91.31
2023-01-23T05:04:53.923Z,91.84
2023-01-23T05:07:21.475Z,91.73
2023-01-23T05:10:03.772Z,92.12
2023-01-23T05:12:30.797Z,91.86
2023-01-23T05:14:58.773Z,92.49
2023-01-23T05:17:25.772Z,91.52
2023-01-23T05:19:53.561Z,92.06
2023-01-23T05:22:20.414Z,92.58
2023-01-23T05:24:47.497Z,91.82
2023-01-23T05:27:15.195Z,92.51
2023-01-23T05:29:43.775Z,92.26
2023-01-23T05:32:15.681Z,92.63
2023-01-23T05:34:42.449Z,92.47
2023-01-23T05:37:17.115Z,92.30
2023-01-23T05:39:47.052Z,92.35
2023-01-23T05:42:15.079Z,92.22
2023-01-23T05:45:00.659Z,92.52
2023-01-23T05:47:33.664Z,92.66
2023-01-23T05:50:01.191Z,93.18
2023-01-23T05:52:32.383Z,92.35
2023-01-23T05:54:59.603Z,92.91
2023-01-23T05:57:26.451Z,92.55
2023-01-23T06:00:13.856Z,92.60
2023-01-23T06:03:03.691Z,92.60
2023-01-23T06:06:06.440Z,92.67
2023-01-23T06:08:34.157Z,92.75
2023-01-23T06:11:01.138Z,92.50
2023-01-23T06:13:28.892Z,91.84
2023-01-23T06:15:56.427Z,91.53
2023-01-23T06:18:25.039Z,92.22
2023-01-23T06:21:00.969Z,92.39
2023-01-23T06:23:28.428Z,92.63
2023-01-23T06:26:02.587Z,91.76
2023-01-23T06:28:30.300Z,92.63
2023-01-23T06:31:01.281Z,91.89
2023-01-23T06:33:38.968Z,92.13
2023-01-23T06:36:09.770Z,93.26
2023-01-23T06:38:38.157Z,92.11
2023-01-23T06:41:09.185Z,92.35
2023-01-23T06:43:38.478Z,93.26
2023-01-23T06:46:10.969Z,92.47
2023-01-23T06:48:38.387Z,93.30
2023-01-23T06:51:06.056Z,92.34
2023-01-23T06:53:33.125Z,92.52
2023-01-23T06:56:05.492Z,92.42
2023-01-23T06:58:35.580Z,93.27
2023-01-23T07:01:15.795Z,92.99
2023-01-23T07:04:01.897Z,93.17
2023-01-23T07:06:31.572Z,92.55
2023-01-23T07:08:59.432Z,92.34
2023-01-23T07:11:27.233Z,92.66
2023-01-23T07:13:57.014Z,92.34
2023-01-23T07:16:26.433Z,91.59
2023-01-23T07:18:55.861Z,91.91
2023-01-23T07:21:23.792Z,91.20
2023-01-23T07:23:51.524Z,91.61
2023-01-23T07:26:18.953Z,91.51
2023-01-23T07:28:46.252Z,91.32
2023-01-23T07:31:13.878Z,92.07
2023-01-23T07:33:41.515Z,91.70
2023-01-23T07:36:09.130Z,91.94
2023-01-23T07:38:37.047Z,91.21
2023-01-23T07:41:04.433Z,91.94
2023-01-23T07:43:31.552Z,91.70
2023-01-23T07:46:00.633Z,91.20
2023-01-23T07:48:28.281Z,91.98
2023-01-23T07:50:56.050Z,91.45
2023-01-23T07:53:23.427Z,91.23
2023-01-23T07:55:50.773Z,91.35
2023-01-23T07:58:17.932Z,91.35
2023-01-23T08:00:46.309Z,91.60
2023-01-23T08:03:13.876Z,91.22
2023-01-23T08:05:42.910Z,91.31
2023-01-23T08:08:13.865Z,91.26
2023-01-23T08:10:42.101Z,91.93
2023-01-23T08:13:09.698Z,91.26
2023-01-23T08:15:38.936Z,91.46
2023-01-23T08:18:06.558Z,90.42
2023-01-23T08:20:34.302Z,90.65
2023-01-23T08:23:02.622Z,90.97
2023-01-23T08:25:30.713Z,90.48
2023-01-23T08:27:57.935Z,90.49
2023-01-23T08:30:25.383Z,90.48
2023-01-23T08:32:52.447Z,91.16
2023-01-23T08:35:19.833Z,91.26
2023-01-23T08:37:46.582Z,90.56
2023-01-23T08:40:13.872Z,90.06
2023-01-23T08:42:41.156Z,90.73
2023-01-23T08:45:08.602Z,90.59
2023-01-23T08:47:37.153Z,91.16
2023-01-23T08:50:05.734Z,90.66
2023-01-23T08:52:34.910Z,90.27
2023-01-23T08:55:03.762Z,90.36
2023-01-23T08:57:31.041Z,89.98
2023-01-23T08:59:58.454Z,90.02
2023-01-23T09:02:25.939Z,90.01
2023-01-23T09:04:53.235Z,91.01
2023-01-23T09:07:20.277Z,91.09
2023-01-23T09:09:47.916Z,91.09
2023-01-23T09:12:15.055Z,90.35
2023-01-23T09:14:42.594Z,90.31
2023-01-23T09:17:09.997Z,90.57
2023-01-23T09:19:37.276Z,90.87
2023-01-23T09:22:04.713Z,90.09
2023-01-23T09:24:31.955Z,89.72
2023-01-23T09:26:59.257Z,90.05
2023-01-23T09:29:26.533Z,90.43
2023-01-23T09:31:53.990Z,89.79
2023-01-23T09:34:21.389Z,89.87
2023-01-23T09:36:48.723Z,89.32
2023-01-23T09:39:16.312Z,89.73
2023-01-23T09:41:45.434Z,89.49
2023-01-23T09:44:21.072Z,89.50
2023-01-23T09:46:50.797Z,89.47
2023-01-23T09:49:29.233Z,88.92
2023-01-23T09:52:04.131Z,89.25
2023-01-23T09:54:46.871Z,88.80
2023-01-23T09:57:19.158Z,89.05
2023-01-23T10:00:01.626Z,89.11
2023-01-23T10:02:31.691Z,89.03
2023-01-23T10:04:59.896Z,88.87
2023-01-23T10:08:02.479Z,88.77
2023-01-23T10:10:52.392Z,88.77
2023-01-23T10:13:44.287Z,88.53
2023-01-23T10:16:22.753Z,88.78
2023-01-23T10:18:58.197Z,89.13
2023-01-23T10:21:37.787Z,88.31
2023-01-23T10:24:16.633Z,87.76
2023-01-23T10:26:46.439Z,87.31
2023-01-23T10:29:30.047Z,87.89
2023-01-23T10:32:01.534Z,87.46
2023-01-23T10:34:35.467Z,87.21
2023-01-23T10:37:24.010Z,86.78
2023-01-23T10:39:53.923Z,87.19
2023-01-23T10:42:25.948Z,86.84
2023-01-23T10:44:53.273Z,85.56
2023-01-23T10:47:27.951Z,86.29
2023-01-23T10:49:56.693Z,85.99
2023-01-23T10:52:46.429Z,85.71
2023-01-23T10:55:20.036Z,84.69
2023-01-23T10:57:49.818Z,84.96
2023-01-23T11:00:27.827Z,83.91
2023-01-23T11:02:54.684Z,83.32
2023-01-23T11:05:52.193Z,84.43
2023-01-23T11:08:23.422Z,84.37
2023-01-23T11:10:50.637Z,84.69
2023-01-23T11:13:30.707Z,83.15
2023-01-23T11:15:57.653Z,83.09
2023-01-23T11:18:36.088Z,82.29
2023-01-23T11:21:02.947Z,82.36
2023-01-23T11:23:30.114Z,82.13
2023-01-23T11:25:57.487Z,82.05
2023-01-23T11:28:35.238Z,81.23
2023-01-23T11:31:13.823Z,81.20
2023-01-23T11:33:57.771Z,81.46
2023-01-23T11:36:52.633Z,79.39
2023-01-23T11:39:57.589Z,78.56
2023-01-23T11:42:28.320Z,79.29
2023-01-23T11:44:58.935Z,79.02
2023-01-23T11:47:42.314Z,79.09
2023-01-23T11:50:28.209Z,77.31
2023-01-23T11:53:05.857Z,76.68
2023-01-23T11:56:18.172Z,75.23
2023-01-23T11:58:56.754Z,74.83
2023-01-23T12:02:02.518Z,74.78
2023-01-23T12:04:42.331Z,74.63
2023-01-23T12:07:12.708Z,73.98
2023-01-23T12:09:57.689Z,73.98
2023-01-23T12:12:47.668Z,74.14
2023-01-23T12:15:23.785Z,72.83
2023-01-23T12:18:27.219Z,73.60
2023-01-23T12:21:10.031Z,71.24
2023-01-23T12:24:11.149Z,71.33
2023-01-23T12:26:45.660Z,71.92
2023-01-23T12:29:45.536Z,73.51
2023-01-23T12:32:42.637Z,72.76
2023-01-23T12:35:22.111Z,74.56
2023-01-23T12:38:03.340Z,73.98
2023-01-23T12:40:57.888Z,73.98
2023-01-23T12:43:37.158Z,73.35
2023-01-23T12:46:11.056Z,73.28
2023-01-23T12:48:44.020Z,72.81
2023-01-23T12:51:30.269Z,73.54
2023-01-23T12:53:58.911Z,72.28
2023-01-23T12:56:34.571Z,72.94
2023-01-23T12:59:08.412Z,74.27
2023-01-23T13:02:01.828Z,74.11
2023-01-23T13:05:11.637Z,73.87
2023-01-23T13:07:56.609Z,71.46
2023-01-23T13:10:52.520Z,71.82
2023-01-23T13:13:21.096Z,72.22
2023-01-23T13:16:12.942Z,72.21
2023-01-23T13:18:58.711Z,71.71
2023-01-23T13:21:45.088Z,71.33
2023-01-23T13:24:40.098Z,69.93
2023-01-23T13:27:32.278Z,69.83
2023-01-23T13:29:59.817Z,70.44
2023-01-23T13:32:30.036Z,70.98
2023-01-23T13:34:57.806Z,69.27
2023-01-23T13:37:30.848Z,68.93
2023-01-23T13:40:20.486Z,68.71
2023-01-23T13:42:47.632Z,70.27
2023-01-23T13:45:27.313Z,70.47
2023-01-23T14:20:33.968Z,74.32
2023-01-23T14:23:01.230Z,74.86
2023-01-23T14:25:28.775Z,74.76
2023-01-23T14:28:04.022Z,74.69
2023-01-23T14:30:31.960Z,74.37
2023-01-23T14:33:01.706Z,74.39
2023-01-23T14:35:31.401Z,74.90
2023-01-23T14:38:01.361Z,75.14
2023-01-23T14:40:37.263Z,75.72
2023-01-23T14:43:19.041Z,75.35
2023-01-23T14:45:48.448Z,75.09
2023-01-23T14:48:17.392Z,75.17
2023-01-23T14:50:44.957Z,75.50
2023-01-23T14:53:17.147Z,75.42
2023-01-23T14:55:47.837Z,75.87
2023-01-23T14:58:22.095Z,75.95
2023-01-23T15:00:50.125Z,76.31
2023-01-23T15:04:03.614Z,76.94
2023-01-23T15:06:33.240Z,77.04
2023-01-23T15:09:30.111Z,77.05
2023-01-23T15:12:08.331Z,78.11
2023-01-23T15:14:38.987Z,76.55
2023-01-23T15:17:12.955Z,77.38
2023-01-23T15:19:40.819Z,76.41
2023-01-23T15:22:21.000Z,75.36
2023-01-23T15:24:48.918Z,75.75
2023-01-23T15:27:34.310Z,75.47
2023-01-23T15:30:20.178Z,76.03
2023-01-23T15:32:47.675Z,76.71
2023-01-23T15:35:18.826Z,77.04
2023-01-23T15:37:50.389Z,76.93
2023-01-23T15:40:20.596Z,77.15
2023-01-23T15:43:10.533Z,77.61
2023-01-23T15:45:37.509Z,77.99
2023-01-23T15:48:05.207Z,78.28
2023-01-23T15:50:31.989Z,78.02
2023-01-23T15:52:59.151Z,79.15
2023-01-23T15:55:28.592Z,78.99
2023-01-23T15:57:55.924Z,79.15
2023-01-23T16:00:25.727Z,79.37
2023-01-23T16:02:57.710Z,79.72
2023-01-23T16:05:27.709Z,79.45
2023-01-23T16:07:55.953Z,79.15
2023-01-23T16:10:32.211Z,79.76
2023-01-23T16:12:59.610Z,79.47
2023-01-23T16:15:29.515Z,79.54
2023-01-23T16:17:57.466Z,79.02
2023-01-23T16:20:35.100Z,78.67
2023-01-23T16:23:14.521Z,78.97
2023-01-23T16:25:44.846Z,79.44
2023-01-23T16:28:18.970Z,78.84
2023-01-23T16:30:47.424Z,79.33
2023-01-23T16:33:15.508Z,79.38
2023-01-23T16:35:43.289Z,79.67
2023-01-23T16:38:30.902Z,79.99
2023-01-23T16:40:59.880Z,79.77
2023-01-23T16:43:27.203Z,79.51
2023-01-23T16:45:56.617Z,80.06
2023-01-23T16:48:28.060Z,80.03
2023-01-23T16:51:08.387Z,79.37
2023-01-23T16:53:42.424Z,79.28
2023-01-23T16:56:28.054Z,79.76
2023-01-23T16:58:55.195Z,79.56
2023-01-23T17:01:24.073Z,79.90
2023-01-23T17:03:57.870Z,79.71
2023-01-23T17:06:25.139Z,80.27
2023-01-23T17:08:56.333Z,80.42
2023-01-23T17:11:38.235Z,79.60
2023-01-23T17:14:08.471Z,80.17
2023-01-23T17:16:35.875Z,79.59
2023-01-23T17:19:07.071Z,79.63
2023-01-23T17:21:35.192Z,78.71
2023-01-23T17:24:03.190Z,78.36
2023-01-23T17:26:30.726Z,78.15
2023-01-23T17:28:58.210Z,77.20
2023-01-23T17:31:28.166Z,78.08
2023-01-23T17:33:58.448Z,77.26
2023-01-23T17:36:26.570Z,77.15
2023-01-23T17:38:55.488Z,76.55
2023-01-23T17:41:22.429Z,76.45
2023-01-23T17:43:51.623Z,76.95
2023-01-23T17:46:27.285Z,77.51
2023-01-23T17:48:55.966Z,77.91
2023-01-23T17:51:24.917Z,77.72
2023-01-23T17:53:52.289Z,77.84
2023-01-23T17:56:19.575Z,77.89
2023-01-23T17:58:48.303Z,78.29
2023-01-23T18:01:20.229Z,79.20
2023-01-23T18:03:49.199Z,78.51
2023-01-23T18:06:16.937Z,79.63
2023-01-23T18:08:44.387Z,79.89
2023-01-23T18:11:23.215Z,79.63
2023-01-23T18:14:05.707Z,79.51
2023-01-23T18:16:40.584Z,78.62
2023-01-23T18:19:19.801Z,79.45
2023-01-23T18:21:48.497Z,78.63
2023-01-23T18:24:33.237Z,78.41
2023-01-23T18:27:23.208Z,79.28
2023-01-23T18:30:12.055Z,78.99
2023-01-23T18:33:03.868Z,79.22
2023-01-23T18:35:35.910Z,78.63
2023-01-23T18:38:09.098Z,78.39
2023-01-23T18:41:14.068Z,79.06
2023-01-23T18:43:48.865Z,78.48
2023-01-23T18:46:18.973Z,79.90
2023-01-23T18:48:48.221Z,78.44
2023-01-23T18:51:30.127Z,79.54
2023-01-23T18:54:00.763Z,79.52
2023-01-23T18:56:55.069Z,78.11
2023-01-23T18:59:45.493Z,78.52
2023-01-23T19:02:32.968Z,79.29
2023-01-23T19:05:16.212Z,78.95
2023-01-23T19:07:45.427Z,78.41
2023-01-23T19:10:14.814Z,78.71
2023-01-23T19:13:03.528Z,77.65
2023-01-23T19:15:54.934Z,77.96
2023-01-23T19:18:41.061Z,77.65
2023-01-23T19:21:26.959Z,76.65
2023-01-23T19:24:04.534Z,77.46
2023-01-23T19:26:34.447Z,77.29
2023-01-23T19:29:19.102Z,77.55
2023-01-23T19:32:04.700Z,78.67
2023-01-23T19:34:33.681Z,78.07
2023-01-23T19:37:01.045Z,77.84
2023-01-23T19:39:28.242Z,77.93
2023-01-23T19:41:55.615Z,78.06
2023-01-23T19:44:24.560Z,78.29
2023-01-23T19:46:52.557Z,78.32
2023-01-23T19:49:19.967Z,78.31
2023-01-23T19:51:47.759Z,78.34
2023-01-23T19:54:17.144Z,78.03
2023-01-23T19:56:44.882Z,79.01
2023-01-23T19:59:12.146Z,78.88
2023-01-23T20:01:43.678Z,78.11
2023-01-23T20:04:20.126Z,78.54
2023-01-23T20:06:49.408Z,78.47
2023-01-23T20:09:17.789Z,79.54
2023-01-23T20:11:45.856Z,79.00
2023-01-23T20:14:13.274Z,79.16
2023-01-23T20:16:43.575Z,79.20
2023-01-23T20:19:15.112Z,79.02
2023-01-23T20:21:42.887Z,79.51
2023-01-23T20:24:10.295Z,79.35
2023-01-23T20:26:39.737Z,79.05
2023-01-23T20:29:08.684Z,78.84
2023-01-23T20:31:36.322Z,79.43
2023-01-23T20:34:03.948Z,79.25
2023-01-23T20:36:31.627Z,79.17
2023-01-23T20:38:58.911Z,79.12
2023-01-23T20:41:26.001Z,79.64
2023-01-23T20:43:54.322Z,79.74
2023-01-23T20:46:22.007Z,79.52
2023-01-23T20:48:49.161Z,78.64
2023-01-23T20:51:17.106Z,78.99
2023-01-23T20:53:44.742Z,78.27
2023-01-23T20:56:19.687Z,78.17
2023-01-23T20:59:07.646Z,77.85
2023-01-23T21:01:55.252Z,78.67
2023-01-23T21:04:23.899Z,78.41
2023-01-23T21:06:50.963Z,79.69
2023-01-23T21:09:18.319Z,78.61
2023-01-23T21:11:45.478Z,78.40
2023-01-23T21:14:13.694Z,78.19
2023-01-23T21:16:40.793Z,77.67
2023-01-23T21:19:08.010Z,79.01
2023-01-23T21:21:35.586Z,79.19
2023-01-23T21:24:02.876Z,78.55
2023-01-23T21:26:30.620Z,78.88
2023-01-23T21:28:58.756Z,78.92
2023-01-23T21:31:28.826Z,77.77
2023-01-23T21:33:59.028Z,78.25
2023-01-23T21:36:26.685Z,78.44
2023-01-23T21:38:54.999Z,78.86
2023-01-23T21:41:22.734Z,79.30
2023-01-23T21:43:50.148Z,80.13
2023-01-23T21:46:17.599Z,79.70
2023-01-23T21:48:44.822Z,78.75
2023-01-23T21:51:17.967Z,78.95
2023-01-23T21:53:46.689Z,78.57
2023-01-23T21:56:16.050Z,78.71
2023-01-23T21:58:43.393Z,78.54
2023-01-23T22:01:42.412Z,79.44
2023-01-23T22:04:22.849Z,79.48
2023-01-23T22:06:55.725Z,80.22
2023-01-23T22:09:24.948Z,78.59
2023-01-23T22:11:52.496Z,78.62
2023-01-23T22:14:20.103Z,78.47
2023-01-23T22:16:49.776Z,78.42
2023-01-23T22:19:23.300Z,78.27
2023-01-23T22:21:52.511Z,78.96
2023-01-23T22:24:19.989Z,79.19
2023-01-23T22:26:47.064Z,79.96
2023-01-23T22:29:15.128Z,80.08
2023-01-23T22:31:42.953Z,80.17
2023-01-23T22:34:10.339Z,79.82
2023-01-23T22:36:37.819Z,80.65
2023-01-23T22:39:04.950Z,80.15
2023-01-23T22:41:32.772Z,79.73
2023-01-23T22:44:00.128Z,80.52
2023-01-23T22:46:28.412Z,80.11
2023-01-23T22:48:55.808Z,79.60
2023-01-23T22:51:27.547Z,80.45
2023-01-23T22:53:56.781Z,80.37
2023-01-23T22:56:25.532Z,80.24
2023-01-23T22:58:54.724Z,80.37
2023-01-23T23:01:27.410Z,80.74
2023-01-23T23:03:57.439Z,80.20
2023-01-23T23:06:24.942Z,80.30
2023-01-23T23:08:52.733Z,80.21
2023-01-23T23:11:22.247Z,80.41
2023-01-23T23:13:50.039Z,81.09
2023-01-23T23:16:43.328Z,80.91
2023-01-23T23:19:11.189Z,80.28
2023-01-23T23:21:38.880Z,80.45
2023-01-23T23:24:07.807Z,80.51
2023-01-23T23:26:35.328Z,80.17
2023-01-23T23:29:02.957Z,80.43
2023-01-23T23:31:30.597Z,80.54
2023-01-23T23:33:57.868Z,79.84
2023-01-23T23:36:25.388Z,80.59
2023-01-23T23:38:52.688Z,79.06
2023-01-23T23:41:20.507Z,79.16
2023-01-23T23:43:47.928Z,80.37
2023-01-23T23:46:16.281Z,78.96
2023-01-23T23:48:48.333Z,78.96
2023-01-23T23:51:17.739Z,80.28
2023-01-23T23:53:45.567Z,79.70
2023-01-23T23:56:20.495Z,79.65
2023-01-23T23:58:48.073Z,79.49
